createdAt,value
2019-06-08T00:02:18.458Z,18.98
2019-06-08T00:04:49.683Z,19.00
2019-06-08T00:07:20.979Z,19.02
2019-06-08T00:09:53.590Z,19.01
2019-06-08T00:12:27.859Z,19.03
2019-06-08T00:15:00.532Z,19.03
2019-06-08T00:17:38.400Z,19.03
2019-06-08T00:20:06.435Z,19.04
2019-06-08T00:22:38.455Z,19.07
2019-06-08T00:25:09.514Z,19.07
2019-06-08T00:27:40.705Z,19.10
2019-06-08T00:30:12.658Z,19.11
2019-06-08T00:32:46.709Z,19.08
2019-06-08T00:35:18.657Z,19.01
2019-06-08T00:37:49.887Z,18.91
2019-06-08T00:40:21.174Z,18.62
2019-06-08T00:42:52.311Z,18.41
2019-06-08T00:45:25.661Z,18.33
2019-06-08T00:47:56.967Z,18.35
2019-06-08T00:50:31.079Z,18.38
2019-06-08T00:53:03.666Z,18.28
2019-06-08T00:55:36.345Z,18.03
2019-06-08T00:58:07.624Z,17.78
2019-06-08T01:00:38.726Z,17.58
2019-06-08T01:03:09.898Z,17.45
2019-06-08T01:05:41.110Z,17.32
2019-06-08T01:08:13.078Z,17.46
2019-06-08T01:10:44.129Z,17.23
2019-06-08T01:13:15.259Z,17.30
2019-06-08T01:15:47.906Z,17.12
2019-06-08T01:18:24.199Z,17.10
2019-06-08T01:20:55.711Z,17.01
2019-06-08T01:23:27.891Z,17.06
2019-06-08T01:25:59.081Z,17.15
2019-06-08T01:28:30.332Z,17.14
2019-06-08T01:31:01.414Z,17.15
2019-06-08T01:33:32.499Z,17.23
2019-06-08T01:36:03.583Z,17.21
2019-06-08T01:38:37.856Z,17.32
2019-06-08T01:41:08.957Z,17.45
2019-06-08T01:43:41.563Z,17.46
2019-06-08T01:46:12.636Z,17.58
2019-06-08T01:48:43.763Z,17.68
2019-06-08T01:51:16.000Z,17.79
2019-06-08T01:53:47.177Z,17.87
2019-06-08T01:56:18.344Z,17.96
2019-06-08T01:58:51.892Z,18.06
2019-06-08T02:01:23.491Z,17.93
2019-06-08T02:03:54.751Z,17.87
2019-06-08T02:06:28.417Z,17.95
2019-06-08T02:09:00.561Z,17.92
2019-06-08T02:11:32.951Z,17.94
2019-06-08T02:14:04.738Z,17.99
2019-06-08T02:16:37.326Z,17.96
2019-06-08T02:19:08.419Z,17.79
2019-06-08T02:21:39.513Z,17.59
2019-06-08T02:24:10.675Z,17.30
2019-06-08T02:26:41.813Z,17.38
2019-06-08T02:29:12.904Z,17.37
2019-06-08T02:31:47.835Z,17.39
2019-06-08T02:34:16.797Z,17.21
2019-06-08T02:36:47.856Z,17.18
2019-06-08T02:39:19.929Z,17.17
2019-06-08T02:41:51.000Z,17.12
2019-06-08T02:44:22.085Z,17.18
2019-06-08T02:46:54.597Z,17.15
2019-06-08T02:49:29.004Z,17.29
2019-06-08T02:52:01.589Z,17.41
2019-06-08T02:54:37.206Z,17.38
2019-06-08T02:57:07.868Z,17.22
2019-06-08T02:59:40.987Z,17.26
2019-06-08T03:02:13.236Z,17.31
2019-06-08T03:04:44.340Z,17.30
2019-06-08T03:07:16.895Z,17.21
2019-06-08T03:09:50.702Z,17.35
2019-06-08T03:12:26.041Z,17.36
2019-06-08T03:14:57.663Z,17.37
2019-06-08T03:17:28.767Z,17.41
2019-06-08T03:19:59.988Z,17.45
2019-06-08T03:22:32.067Z,17.41
2019-06-08T03:25:05.109Z,17.59
2019-06-08T03:27:37.280Z,17.73
2019-06-08T03:30:16.953Z,17.77
2019-06-08T03:32:50.634Z,17.82
2019-06-08T03:35:14.897Z,17.73
2019-06-08T03:37:45.995Z,17.87
2019-06-08T03:40:18.613Z,17.98
2019-06-08T03:42:53.117Z,18.11
2019-06-08T03:45:24.037Z,18.13
2019-06-08T03:47:55.157Z,18.18
2019-06-08T03:50:26.231Z,18.10
2019-06-08T03:52:57.317Z,18.17
2019-06-08T03:55:30.025Z,18.20
2019-06-08T03:58:01.135Z,18.24
2019-06-08T04:00:33.773Z,18.31
2019-06-08T04:03:05.171Z,18.44
2019-06-08T04:05:37.841Z,18.45
2019-06-08T04:08:09.026Z,18.42
2019-06-08T04:10:42.202Z,18.50
2019-06-08T04:13:14.422Z,18.54
2019-06-08T04:15:46.900Z,18.62
2019-06-08T04:18:18.292Z,18.71
2019-06-08T04:20:51.305Z,18.80
2019-06-08T04:23:22.198Z,18.77
2019-06-08T04:25:55.596Z,18.77
2019-06-08T04:28:26.690Z,18.50
2019-06-08T04:30:57.847Z,18.52
2019-06-08T04:33:28.957Z,18.52
2019-06-08T04:36:00.883Z,18.71
2019-06-08T04:38:33.401Z,18.78
2019-06-08T04:41:05.567Z,18.97
2019-06-08T04:43:38.525Z,19.09
2019-06-08T04:46:10.310Z,19.26
2019-06-08T04:48:43.167Z,19.15
2019-06-08T04:51:15.779Z,19.31
2019-06-08T04:53:49.566Z,19.78
2019-06-08T04:56:22.960Z,20.44
2019-06-08T04:58:55.571Z,21.06
2019-06-08T05:01:26.721Z,21.35
2019-06-08T05:03:57.869Z,21.42
2019-06-08T05:06:28.971Z,21.60
2019-06-08T05:09:00.039Z,21.81
2019-06-08T05:11:36.335Z,22.33
2019-06-08T05:14:07.103Z,22.93
2019-06-08T05:16:39.092Z,23.02
2019-06-08T05:19:10.378Z,23.53
2019-06-08T05:21:41.664Z,23.99
2019-06-08T05:24:14.212Z,23.53
2019-06-08T05:26:47.382Z,23.22
2019-06-08T05:29:18.515Z,23.26
2019-06-08T05:31:51.085Z,23.66
2019-06-08T05:34:22.183Z,23.82
2019-06-08T05:36:54.059Z,23.61
2019-06-08T05:39:25.211Z,23.45
2019-06-08T05:41:56.455Z,23.32
2019-06-08T05:44:27.614Z,23.65
2019-06-08T05:46:58.742Z,23.66
2019-06-08T05:49:29.802Z,23.74
2019-06-08T05:52:00.898Z,24.30
2019-06-08T05:54:33.553Z,24.78
2019-06-08T05:57:07.258Z,25.10
2019-06-08T05:59:39.960Z,25.06
2019-06-08T06:02:11.227Z,25.11
2019-06-08T06:04:42.478Z,25.47
2019-06-08T06:07:13.572Z,25.98
2019-06-08T06:09:45.148Z,26.00
2019-06-08T06:12:16.208Z,26.00
2019-06-08T06:14:55.213Z,26.47
2019-06-08T06:17:27.899Z,26.11
2019-06-08T06:19:59.017Z,26.15
2019-06-08T06:22:31.642Z,26.04
2019-06-08T06:25:02.907Z,26.39
2019-06-08T06:27:33.962Z,26.40
2019-06-08T06:30:09.445Z,26.91
2019-06-08T06:32:41.760Z,27.32
2019-06-08T06:35:13.219Z,26.78
2019-06-08T06:37:45.812Z,27.20
2019-06-08T06:40:17.290Z,27.05
2019-06-08T06:42:48.325Z,26.97
2019-06-08T06:45:20.295Z,27.14
2019-06-08T06:47:55.251Z,27.43
2019-06-08T06:50:28.785Z,27.69
2019-06-08T06:53:05.040Z,28.01
2019-06-08T06:55:58.346Z,28.17
2019-06-08T06:58:33.109Z,28.34
2019-06-08T07:01:09.044Z,28.03
2019-06-08T07:03:41.817Z,27.48
2019-06-08T07:06:31.467Z,27.20
2019-06-08T07:09:05.154Z,27.25
2019-06-08T07:11:46.770Z,27.44
2019-06-08T07:14:29.511Z,27.77
2019-06-08T07:17:03.891Z,27.69
2019-06-08T07:19:35.021Z,27.57
2019-06-08T07:23:04.243Z,27.56
2019-06-08T07:24:59.552Z,27.87
2019-06-08T07:27:32.669Z,27.85
2019-06-08T07:30:12.785Z,27.20
2019-06-08T07:32:46.539Z,27.07
2019-06-08T07:35:32.271Z,27.76
2019-06-08T07:38:11.617Z,28.09
2019-06-08T07:40:45.249Z,27.79
2019-06-08T07:43:17.071Z,27.28
2019-06-08T07:45:54.169Z,27.41
2019-06-08T07:48:28.832Z,27.56
2019-06-08T07:51:01.838Z,27.76
2019-06-08T07:53:33.092Z,27.16
2019-06-08T07:56:12.997Z,26.43
2019-06-08T07:58:46.880Z,26.71
2019-06-08T08:01:35.321Z,26.81
2019-06-08T08:03:59.555Z,26.83
2019-06-08T08:06:33.428Z,26.35
2019-06-08T08:09:07.414Z,26.36
2019-06-08T08:11:44.605Z,26.41
2019-06-08T08:14:23.285Z,26.47
2019-06-08T08:16:57.174Z,26.78
2019-06-08T08:19:29.715Z,26.13
2019-06-08T08:22:23.112Z,26.41
2019-06-08T08:28:50.200Z,26.60
2019-06-08T08:31:23.012Z,26.01
2019-06-08T08:34:00.893Z,26.34
2019-06-08T08:36:38.110Z,26.26
2019-06-08T08:39:11.903Z,26.36
2019-06-08T08:41:45.755Z,26.29
2019-06-08T08:44:17.798Z,26.37
2019-06-08T08:46:53.477Z,26.38
2019-06-08T08:49:29.200Z,26.44
2019-06-08T08:52:01.841Z,26.45
2019-06-08T08:54:37.545Z,26.28
2019-06-08T08:57:17.975Z,26.15
2019-06-08T08:59:54.574Z,25.85
2019-06-08T09:02:37.382Z,25.52
2019-06-08T09:05:04.967Z,25.79
2019-06-08T09:07:43.962Z,25.88
2019-06-08T09:24:07.508Z,25.31
2019-06-08T09:26:39.492Z,25.72
2019-06-08T09:29:13.595Z,26.00
2019-06-08T09:31:48.872Z,26.28
2019-06-08T09:34:22.444Z,26.35
2019-06-08T09:37:02.644Z,26.72
2019-06-08T09:39:33.657Z,26.92
2019-06-08T09:42:09.133Z,26.91
2019-06-08T09:44:48.283Z,26.95
2019-06-08T09:51:18.528Z,26.78
2019-06-08T09:53:48.806Z,26.76
2019-06-08T09:56:21.305Z,26.84
2019-06-08T09:58:52.815Z,27.06
2019-06-08T10:01:23.963Z,27.10
2019-06-08T10:03:56.734Z,27.31
2019-06-08T10:06:29.329Z,27.28
2019-06-08T10:09:00.772Z,27.41
2019-06-08T10:11:33.401Z,27.78
2019-06-08T10:14:11.647Z,28.14
2019-06-08T10:16:39.416Z,28.11
2019-06-08T10:19:10.611Z,28.33
2019-06-08T10:21:43.435Z,28.49
2019-06-08T10:24:15.057Z,28.82
2019-06-08T10:26:47.765Z,28.95
2019-06-08T10:29:19.887Z,29.08
2019-06-08T10:31:51.079Z,29.37
2019-06-08T10:34:22.321Z,29.51
2019-06-08T10:36:53.719Z,29.70
2019-06-08T10:39:24.872Z,29.77
2019-06-08T10:41:59.579Z,29.93
2019-06-08T10:44:29.175Z,30.02
2019-06-08T10:47:02.924Z,30.05
2019-06-08T10:49:33.033Z,30.10
2019-06-08T10:52:09.831Z,30.14
2019-06-08T10:54:38.504Z,30.11
2019-06-08T10:57:09.954Z,30.13
2019-06-08T10:59:42.837Z,30.09
2019-06-08T11:02:14.715Z,30.13
2019-06-08T11:04:48.809Z,30.23
2019-06-08T11:07:19.898Z,30.32
2019-06-08T11:09:50.999Z,30.38
2019-06-08T11:12:22.063Z,30.34
2019-06-08T11:14:58.353Z,30.37
2019-06-08T11:17:29.645Z,30.38
2019-06-08T11:20:07.437Z,30.45
2019-06-08T11:22:37.628Z,30.50
2019-06-08T11:25:16.000Z,30.59
2019-06-08T11:27:44.025Z,30.58
2019-06-08T11:30:23.534Z,30.54
2019-06-08T11:32:50.643Z,30.50
2019-06-08T11:35:23.354Z,30.48
2019-06-08T11:37:58.301Z,30.50
2019-06-08T11:44:28.329Z,30.57
2019-06-08T11:46:58.605Z,30.58
2019-06-08T11:49:29.671Z,30.55
2019-06-08T11:52:02.482Z,30.59
2019-06-08T11:54:37.428Z,30.54
2019-06-08T12:01:01.856Z,30.51
2019-06-08T12:03:32.791Z,30.38
2019-06-08T12:06:04.331Z,30.27
2019-06-08T12:08:40.042Z,30.12
2019-06-08T12:11:18.091Z,29.37
2019-06-08T12:17:30.464Z,27.59
2019-06-08T12:20:03.298Z,27.00
2019-06-08T12:22:34.738Z,25.77
2019-06-08T12:25:08.155Z,24.81
2019-06-08T12:27:40.184Z,24.06
2019-06-08T12:30:21.648Z,23.60
2019-06-08T12:32:44.317Z,23.34
2019-06-08T12:35:18.184Z,22.82
2019-06-08T12:37:51.571Z,22.59
2019-06-08T12:40:24.352Z,22.24
2019-06-08T12:42:59.456Z,21.99
2019-06-08T12:45:28.158Z,21.82
2019-06-08T12:47:59.259Z,21.49
2019-06-08T12:50:30.481Z,21.28
2019-06-08T12:53:02.450Z,21.17
2019-06-08T12:55:33.486Z,21.12
2019-06-08T12:58:04.884Z,21.01
2019-06-08T13:00:37.992Z,20.93
2019-06-08T13:03:10.170Z,20.95
2019-06-08T13:05:42.473Z,20.84
2019-06-08T13:08:15.276Z,20.78
2019-06-08T13:10:48.159Z,20.78
2019-06-08T13:13:24.169Z,20.88
2019-06-08T13:15:52.138Z,20.99
2019-06-08T13:18:23.194Z,21.03
2019-06-08T13:20:55.739Z,21.20
2019-06-08T13:23:28.420Z,21.12
2019-06-08T13:25:59.392Z,21.19
2019-06-08T13:28:30.454Z,21.26
2019-06-08T13:31:01.480Z,21.35
2019-06-08T13:33:32.930Z,21.37
2019-06-08T13:36:04.071Z,21.40
2019-06-08T13:38:37.935Z,21.48
2019-06-08T13:41:10.934Z,21.50
2019-06-08T13:43:42.043Z,21.63
2019-06-08T13:46:13.710Z,21.72
2019-06-08T13:48:48.184Z,21.80
2019-06-08T13:51:20.996Z,21.81
2019-06-08T13:53:52.628Z,21.94
2019-06-08T13:56:24.073Z,21.93
2019-06-08T13:58:55.311Z,22.05
2019-06-08T14:01:27.930Z,22.14
2019-06-08T14:04:00.988Z,22.34
2019-06-08T14:06:32.015Z,22.45
2019-06-08T14:09:05.533Z,22.65
2019-06-08T14:11:36.921Z,22.67
2019-06-08T14:14:08.592Z,22.78
2019-06-08T14:16:40.635Z,22.89
2019-06-08T14:19:11.669Z,23.02
2019-06-08T14:24:13.557Z,23.28
2019-06-08T14:26:48.500Z,23.33
2019-06-08T14:29:21.180Z,23.15
2019-06-08T14:31:51.604Z,23.09
2019-06-08T14:34:23.676Z,23.14
2019-06-08T14:36:55.401Z,23.11
2019-06-08T14:39:31.051Z,23.04
2019-06-08T14:42:01.644Z,22.86
2019-06-08T14:44:34.028Z,22.89
2019-06-08T14:47:08.047Z,22.85
2019-06-08T14:49:39.196Z,22.69
2019-06-08T14:52:10.879Z,22.64
2019-06-08T14:54:43.818Z,22.53
2019-06-08T14:57:17.864Z,22.65
2019-06-08T14:59:50.343Z,22.65
2019-06-08T15:02:21.447Z,22.65
2019-06-08T15:04:54.169Z,22.73
2019-06-08T15:07:28.987Z,22.75
2019-06-08T15:09:59.453Z,22.74
2019-06-08T15:12:32.442Z,22.72
2019-06-08T15:15:03.472Z,22.70
2019-06-08T15:17:34.515Z,22.71
2019-06-08T15:20:08.876Z,22.78
2019-06-08T15:22:39.998Z,22.85
2019-06-08T15:25:12.890Z,22.96
2019-06-08T15:27:43.918Z,23.04
2019-06-08T15:30:17.889Z,23.13
2019-06-08T15:32:48.918Z,23.20
2019-06-08T15:35:21.048Z,23.26
2019-06-08T15:37:52.164Z,23.27
2019-06-08T15:40:29.806Z,23.28
2019-06-08T15:43:00.970Z,23.24
2019-06-08T15:45:34.106Z,23.23
2019-06-08T15:48:04.964Z,23.21
2019-06-08T15:50:37.930Z,23.18
2019-06-08T15:53:08.750Z,23.14
2019-06-08T15:55:40.770Z,23.13
2019-06-08T15:58:11.802Z,23.16
2019-06-08T16:00:42.930Z,23.16
2019-06-08T16:03:13.975Z,23.16
2019-06-08T16:05:45.735Z,22.98
2019-06-08T16:08:16.802Z,22.99
2019-06-08T16:10:48.743Z,22.95
2019-06-08T16:13:19.767Z,22.92
2019-06-08T16:15:50.792Z,22.94
2019-06-08T21:03:08.421Z,15.60
2019-06-08T21:05:41.943Z,15.63
2019-06-08T21:08:13.114Z,15.76
2019-06-08T21:10:45.459Z,15.89
2019-06-08T21:13:17.907Z,16.00
2019-06-08T21:15:52.643Z,16.08
2019-06-08T21:18:22.912Z,16.16
2019-06-08T21:20:55.178Z,16.23
2019-06-08T21:23:31.804Z,16.28
2019-06-08T21:26:01.289Z,16.33
2019-06-08T21:28:35.339Z,16.36
2019-06-08T21:31:08.329Z,16.37
2019-06-08T23:04:00.903Z,13.95
2019-06-08T23:06:33.993Z,14.00
2019-06-08T23:09:08.691Z,14.14
2019-06-08T23:11:40.033Z,14.30
2019-06-08T23:14:13.575Z,14.41
2019-06-08T23:16:47.071Z,14.54
2019-06-08T23:19:18.612Z,14.65
2019-06-08T23:21:49.669Z,14.73
2019-06-08T23:24:22.357Z,14.80
2019-06-08T23:26:57.731Z,14.86
2019-06-08T23:29:28.827Z,14.92
2019-06-08T23:32:02.421Z,14.96
2019-06-08T23:34:33.595Z,14.98
2019-06-08T23:37:12.204Z,15.00
2019-06-08T23:39:39.052Z,15.01
2019-06-08T23:42:10.099Z,15.04
2019-06-08T23:44:41.159Z,15.04
2019-06-08T23:47:12.259Z,15.03
2019-06-08T23:49:47.479Z,15.05
2019-06-08T23:52:18.577Z,15.05
2019-06-08T23:54:49.668Z,15.04
2019-06-08T23:57:22.267Z,15.06
2019-06-08T23:59:53.392Z,15.05
